Latest Weather Observations for Montague Island

IDN60901

Issued at 1:51 am EDT Wednesday 20 March 2019 (issued every 10 minutes, with the page automatically refreshed every 10 minutes)

About weather observations | Map of Canberra area stations | Latest observations for Canberra area | Other Formats
Station Details ID: 069017 Name: MONTAGUE ISLAND LIGHTHOUSE Lat: -36.25 Lon: 150.23 Height: 52.0 m
Data from the previous 72 hours. | See also: Recent months at Montague Island
Date/Time
EDT
Temp
°C
App
Temp
°C
Dew
Point
°C
Rel
Hum
%
Delta-T
°C
Wind Press
QNH
hPa
Press
MSL
hPa
Rain since
9am
mm
Dir  Spd
km/h
Gust
km/h
Spd
kts
Gust
kts
20/01:30am 20.9 19.9 20.4 97 0.3 SW 26 30 14 16 1014.2 1014.0 4.2
20/01:00am 20.9 20.5 20.2 96 0.4 SW 22 28 12 15 1014.3 1014.1 4.2
20/12:30am 21.0 21.1 20.3 96 0.5 SW 20 24 11 13 1014.4 1014.2 4.0
20/12:00am 21.0 21.3 20.3 96 0.5 SW 19 24 10 13 1014.8 1014.6 2.0
 
Date/Time
EDT
Temp
°C
App
Temp
°C
Dew
Point
°C
Rel
Hum
%
Delta-T
°C
Wind Press
QNH
hPa
Press
MSL
hPa
Rain since
9am
mm
Dir  Spd
km/h
Gust
km/h
Spd
kts
Gust
kts
19/11:30pm 21.1 20.4 20.3 95 0.5 SW 24 30 13 16 1014.8 1014.6 0.4
19/11:00pm 21.3 20.7 20.5 95 0.5 SW 24 30 13 16 1014.8 1014.6 0.4
19/10:30pm 21.3 19.9 20.5 95 0.5 SW 28 33 15 18 1014.9 1014.7 0.4
19/10:00pm 21.4 19.6 20.4 94 0.6 SW 30 37 16 20 1014.7 1014.5 0.4
19/09:30pm 21.8 20.9 20.6 93 0.8 SW 26 32 14 17 1014.6 1014.4 0.4
19/09:00pm 22.1 22.1 20.9 93 0.8 SSW 22 26 12 14 1014.5 1014.3 0.4
19/08:30pm 22.1 22.1 20.9 93 0.8 S 22 26 12 14 1014.4 1014.2 0.4
19/08:00pm 22.2 22.6 21.0 93 0.8 S 20 24 11 13 1014.0 1013.8 0.4
19/07:30pm 22.2 22.7 20.8 92 0.9 S 19 22 10 12 1013.8 1013.6 0.4
19/07:00pm 22.3 22.7 20.6 90 1.1 S 19 24 10 13 1013.6 1013.4 0.4
19/06:30pm 22.6 22.8 20.1 86 1.6 SSE 19 22 10 12 1013.6 1013.4 0.4
19/06:00pm 22.5 23.5 20.2 87 1.5 S 15 19 8 10 1013.4 1013.2 0.4
19/05:30pm 22.5 23.1 20.2 87 1.5 SSE 17 20 9 11 1013.2 1013.0 0.4
19/05:00pm 22.6 22.6 20.1 86 1.6 S 20 26 11 14 1013.1 1012.9 0.4
19/04:30pm 22.8 22.6 20.5 87 1.5 SSE 22 26 12 14 1013.2 1013.0 0.4
19/04:00pm 23.1 22.1 20.4 85 1.8 SSE 26 30 14 16 1013.2 1013.0 0.4
19/03:30pm 23.5 22.9 20.4 83 2.0 SSE 24 30 13 16 1013.1 1012.9 0.4
19/03:00pm 23.4 22.4 20.5 84 1.9 SSE 26 32 14 17 1013.3 1013.1 0.4
19/02:30pm 24.0 23.4 20.5 81 2.3 S 24 30 13 16 1013.6 1013.4 0.4
19/02:00pm 24.3 23.9 21.0 82 2.2 S 24 32 13 17 1013.9 1013.7 0.4
19/01:30pm 24.1 23.1 20.4 80 2.4 S 26 33 14 18 1014.3 1014.1 0.4
19/01:00pm 23.6 22.5 20.3 82 2.1 S 26 32 14 17 1014.5 1014.3 0.2
19/12:30pm 23.9 22.5 21.2 85 1.8 SSW 30 35 16 19 1014.8 1014.6 0.2
19/12:00pm 23.1 21.0 21.0 88 1.4 SSW 33 39 18 21 1014.9 1014.7 0.2
19/11:30am 22.6 21.2 21.2 92 0.9 SSW 30 37 16 20 1015.1 1014.9 0.2
19/11:00am 21.6 20.6 20.4 93 0.8 SSW 26 33 14 18 1015.1 1014.9 0.2
19/10:30am 21.1 18.9 20.4 96 0.5 SSW 32 39 17 21 1015.0 1014.8 0.2
19/10:00am 21.2 19.8 20.4 95 0.5 SW 28 35 15 19 1014.8 1014.6 0.2
19/09:30am 20.9 19.3 20.1 95 0.5 SW 28 33 15 18 1014.7 1014.5 0.2
19/09:00am 20.6 18.9 19.9 96 0.4 SW 28 33 15 18 1014.3 1014.1 16.6
19/08:30am 20.4 18.7 19.9 97 0.3 SW 28 35 15 19 1014.1 1013.9 16.6
19/08:00am 20.5 18.9 20.0 97 0.3 SW 28 35 15 19 1013.9 1013.7 15.6
19/07:30am 20.5 19.4 20.2 98 0.2 SW 26 32 14 17 1013.7 1013.5 15.6
19/07:00am 20.3 19.8 20.0 98 0.2 SW 22 26 12 14 1013.5 1013.3 15.6
19/06:30am 20.7 20.1 20.4 98 0.2 SW 24 32 13 17 1013.2 1013.0 15.6
19/06:00am 20.7 19.6 20.2 97 0.3 SW 26 35 14 19 1012.9 1012.8 15.6
19/05:30am 20.7 20.0 20.2 97 0.3 SW 24 32 13 17 1012.9 1012.8 15.6
19/05:00am 20.7 19.9 20.0 96 0.4 SW 24 32 13 17 1012.8 1012.7 15.6
19/04:30am 20.6 19.3 19.9 96 0.4 SW 26 32 14 17 1012.8 1012.7 15.6
19/04:00am 20.7 19.1 20.0 96 0.4 SW 28 33 15 18 1012.8 1012.7 15.6
19/03:30am 20.7 19.1 20.0 96 0.4 SW 28 32 15 17 1013.1 1012.9 15.6
19/03:00am 20.6 19.8 20.1 97 0.3 SW 24 28 13 15 1013.3 1013.1 15.6
19/02:30am 20.6 19.4 20.1 97 0.3 SW 26 32 14 17 1013.5 1013.3 15.6
19/02:00am 20.2 20.2 19.7 97 0.3 SW 19 22 10 12 1013.8 1013.6 15.6
19/01:30am 20.7 20.7 20.2 97 0.3 WSW 20 28 11 15 1014.0 1013.8 15.6
19/01:00am 20.6 20.8 20.1 97 0.3 WSW 19 24 10 13 1014.2 1014.0 15.4
19/12:30am 21.0 23.2 20.5 97 0.3 SW 9 13 5 7 1014.4 1014.2 15.2
19/12:00am 21.4 21.2 20.6 95 0.5 SW 22 28 12 15 1014.2 1014.0 0.0
 
Date/Time
EDT
Temp
°C
App
Temp
°C
Dew
Point
°C
Rel
Hum
%
Delta-T
°C
Wind Press
QNH
hPa
Press
MSL
hPa
Rain since
9am
mm
Dir  Spd
km/h
Gust
km/h
Spd
kts
Gust
kts
18/11:30pm 21.3 21.1 20.5 95 0.5 SW 22 28 12 15 1014.3 1014.1 0.0
18/11:00pm 21.2 20.9 20.4 95 0.5 SW 22 28 12 15 1014.2 1014.0 0.0
18/10:30pm 21.4 21.1 20.4 94 0.6 SW 22 26 12 14 1014.3 1014.1 0.0
18/10:00pm 21.6 21.8 20.6 94 0.6 SW 20 26 11 14 1014.5 1014.3 0.0
18/09:30pm 21.6 21.4 20.6 94 0.6 SW 22 26 12 14 1014.4 1014.2 0.0
18/09:00pm 21.9 21.8 20.7 93 0.8 SSW 22 30 12 16 1014.2 1014.0 0.0
18/08:30pm 22.0 21.4 20.6 92 0.9 SSW 24 28 13 15 1014.0 1013.8 0.0
18/08:00pm 22.2 22.0 20.5 90 1.1 S 22 28 12 15 1013.7 1013.5 0.0
18/07:30pm 22.1 21.7 20.2 89 1.2 S 22 26 12 14 1013.3 1013.1 0.0
18/07:00pm 22.3 22.3 20.2 88 1.4 S 20 24 11 13 1013.3 1013.1 0.0
18/06:30pm 22.6 22.6 20.1 86 1.6 S 20 24 11 13 1012.9 1012.8 0.0
18/06:00pm 22.9 23.6 20.4 86 1.6 S 17 20 9 11 1012.7 1012.6 0.0
18/05:30pm 22.9 23.3 19.9 83 1.9 SSE 17 19 9 10 1012.7 1012.6 0.0
18/05:00pm 23.1 23.5 19.9 82 2.1 SSE 17 22 9 12 1012.6 1012.5 0.0
18/04:30pm 23.1 23.9 19.9 82 2.1 SSE 15 19 8 10 1012.3 1012.2 0.0
18/04:00pm 23.2 24.2 20.2 83 1.9 SE 15 17 8 9 1012.5 1012.4 0.0
18/03:30pm 23.2 23.8 20.2 83 1.9 SE 17 20 9 11 1012.6 1012.5 0.0
18/03:00pm 23.3 25.3 19.9 81 2.2 SE 9 15 5 8 1012.7 1012.6 0.0
18/02:30pm 23.3 25.0 20.1 82 2.1 ESE 11 15 6 8 1013.3 1013.1 0.0
18/02:00pm 23.5 26.0 20.2 82 2.1 SE 7 17 4 9 1013.3 1013.1 0.0
18/01:30pm 23.2 24.2 20.2 83 1.9 SSE 15 19 8 10 1013.4 1013.2 0.0
18/01:00pm 22.9 24.5 19.9 83 1.9 SSE 11 15 6 8 1013.3 1013.1 0.0
18/12:30pm 22.6 24.0 19.6 83 1.9 SSE 11 15 6 8 1013.4 1013.2 0.0
18/12:00pm 23.3 26.0 20.6 85 1.8 SSE 7 13 4 7 1013.6 1013.4 0.0
18/11:30am 22.1 24.9 19.6 86 1.6 SSE 4 7 2 4 1013.9 1013.7 0.0
18/11:00am 22.5 25.6 20.2 87 1.5 ESE 4 6 2 3 1013.8 1013.6 0.0
18/10:30am 21.8 24.1 19.5 87 1.5 NE 6 13 3 7 1013.9 1013.7 0.0
18/10:00am 21.4 21.7 19.5 89 1.2 NE 17 24 9 13 1013.5 1013.3 0.0
18/09:30am 21.6 20.4 20.1 91 1.0 ENE 26 30 14 16 1013.2 1013.0 0.0
18/09:00am 21.4 19.0 20.4 94 0.6 ENE 33 41 18 22 1012.6 1012.5 24.2
18/08:30am 21.4 19.3 20.6 95 0.5 E 32 39 17 21 1012.3 1012.2 24.2
18/08:00am 21.7 19.0 20.5 93 0.8 E 35 43 19 23 1011.6 1011.5 24.2
18/07:30am 21.5 18.2 20.0 91 1.0 E 37 44 20 24 1011.1 1011.0 24.2
18/07:00am 21.5 18.3 20.3 93 0.8 E 37 44 20 24 1010.6 1010.5 24.2
18/06:30am 22.1 19.1 21.3 95 0.5 E 39 44 21 24 1010.0 1009.9 24.2
18/06:00am 22.0 20.2 21.5 97 0.3 E 33 39 18 21 1009.9 1009.8 24.2
18/05:43am 21.5 19.1 21.0 97 0.3 E 35 56 19 30 1009.7 1009.6 24.2
18/05:30am 22.1 17.7 21.3 95 0.5 ESE 46 56 25 30 1009.6 1009.5 23.8
18/05:00am 23.0 20.2 21.8 93 0.8 ESE 39 48 21 26 1009.7 1009.6 23.8
18/04:30am 22.4 19.4 22.2 99 0.1 ESE 41 50 22 27 1009.8 1009.7 23.8
18/04:13am 21.5 18.8 21.3 99 0.1 ESE 37 63 20 34 1009.8 1009.7 22.4
18/04:11am 21.9 19.9 21.9 100 0.0 SSE 35 46 19 25 1010.1 1010.0 21.8
18/04:07am 21.3 18.6 21.3 100 0.0 SSW 37 72 20 39 1010.4 1010.3 21.8
18/04:00am 20.3 15.8 20.3 100 0.0 SW 44 72 24 39 1009.5 1009.4 21.8
18/03:30am 19.5 15.2 19.5 100 0.0 SW 41 57 22 31 1010.0 1009.9 21.6
18/03:24am 19.6 16.1 19.6 100 0.0 SW 37 56 20 30 1010.1 1010.0 21.6
18/03:00am 19.7 14.9 19.7 100 0.0 SW 44 57 24 31 1010.6 1010.5 21.6
18/02:37am 19.7 14.9 19.7 100 0.0 SW 44 63 24 34 1010.6 1010.5 21.2
18/02:30am 19.7 14.5 19.7 100 0.0 SW 46 65 25 35 1010.7 1010.6 21.2
18/02:10am 20.0 14.6 20.0 100 0.0 SSW 48 74 26 40 1010.6 1010.5 19.8
18/02:07am 20.2 14.5 20.2 100 0.0 SSW 50 74 27 40 1011.1 1011.0 19.8
18/02:00am 20.3 13.5 20.3 100 0.0 SSW 56 78 30 42 1010.9 1010.8 19.8
18/01:56am 20.2 13.8 20.2 100 0.0 SSW 54 78 29 42 1010.2 1010.1 19.8
18/01:30am 19.7 15.9 19.7 100 0.0 SSW 39 67 21 36 1010.6 1010.5 19.8
18/01:27am 19.6 16.1 19.6 100 0.0 SW 37 63 20 34 1010.7 1010.6 19.8
18/01:26am 19.7 16.2 19.7 100 0.0 SW 37 59 20 32 1011.0 1010.9 19.8
18/01:00am 19.4 14.1 19.4 100 0.0 SW 46 65 25 35 1011.3 1011.2 17.6
18/12:52am 19.0 16.6 19.0 100 0.0 SW 30 65 16 35 1011.1 1011.0 16.8
18/12:45am 18.6 13.2 18.4 99 0.1 SW 44 69 24 37 1012.1 1012.0 16.8
18/12:36am 18.7 12.7 18.7 100 0.0 WSW 48 67 26 36 1011.5 1011.4 16.8
18/12:30am 18.6 11.3 18.4 99 0.1 WSW 54 67 29 36 1011.1 1011.0 16.8
18/12:00am 18.6 11.3 18.4 99 0.1 SW 54 72 29 39 1011.7 1011.6 15.4
 
Date/Time
EDT
Temp
°C
App
Temp
°C
Dew
Point
°C
Rel
Hum
%
Delta-T
°C
Wind Press
QNH
hPa
Press
MSL
hPa
Rain since
9am
mm
Dir  Spd
km/h
Gust
km/h
Spd
kts
Gust
kts
17/11:30pm 18.6 10.0 18.4 99 0.1 SW 61 74 33 40 1011.9 1011.8 15.0
17/11:00pm 18.8 10.3 18.6 99 0.1 SW 61 80 33 43 1012.1 1012.0 13.6
17/10:54pm 18.7 10.5 18.5 99 0.1 SW 59 80 32 43 1012.3 1012.2 13.6
17/10:30pm 18.7 9.6 18.2 97 0.3 SW 63 76 34 41 1012.4 1012.3 11.6
17/10:00pm 18.7 9.6 18.2 97 0.3 SW 63 76 34 41 1012.7 1012.6 10.4
17/09:30pm 18.6 9.9 18.1 97 0.3 SW 61 74 33 40 1013.4 1013.2 8.2
17/09:00pm 18.8 10.9 18.3 97 0.3 SW 57 69 31 37 1013.8 1013.6 6.6
17/08:43pm 19.3 11.6 18.8 97 0.3 SW 57 76 31 41 1013.9 1013.7 5.8
17/08:30pm 19.9 11.7 19.2 96 0.4 SW 61 74 33 40 1013.7 1013.5 4.4
17/08:00pm 19.8 12.4 19.0 95 0.5 SSW 56 72 30 39 1013.8 1013.6 2.8
17/07:53pm 20.0 13.4 19.0 94 0.6 SSW 52 70 28 38 1014.0 1013.8 2.0
17/07:30pm 19.9 12.1 18.6 92 0.8 SSW 57 72 31 39 1014.0 1013.8 1.2
17/07:00pm 20.1 12.5 18.6 91 0.9 SSW 56 69 30 37 1014.2 1014.0 0.8
17/06:30pm 20.5 13.6 19.2 92 0.8 SSW 54 65 29 35 1014.6 1014.4 0.4
17/06:00pm 20.4 13.0 18.9 91 0.9 SSW 56 67 30 36 1014.4 1014.2 0.2
17/05:30pm 20.7 13.6 18.8 89 1.2 SSW 54 65 29 35 1014.3 1014.1 0.0
17/05:00pm 21.2 15.5 19.3 89 1.2 SSW 48 61 26 33 1014.4 1014.2 0.0
17/04:30pm 21.2 15.8 19.1 88 1.3 SSW 46 59 25 32 1014.7 1014.5 0.0
17/04:00pm 21.3 15.8 18.9 86 1.5 SSW 46 57 25 31 1015.0 1014.8 0.0
17/03:30pm 22.1 17.0 18.7 81 2.1 SSW 43 57 23 31 1015.3 1015.1 0.0
17/03:00pm 22.3 17.3 19.3 83 1.9 SSW 44 56 24 30 1015.7 1015.5 0.0
17/02:30pm 22.5 17.5 19.3 82 2.0 SSW 44 54 24 29 1016.0 1015.8 0.0
17/02:00pm 22.4 17.4 18.8 80 2.3 S 43 54 23 29 1016.5 1016.3 0.0
17/01:30pm 22.0 17.6 20.1 89 1.2 SSW 43 56 23 30 1016.8 1016.6 0.0
17/01:00pm 21.4 16.7 19.5 89 1.2 SW 43 54 23 29 1017.0 1016.8 0.0
17/12:30pm 21.3 16.6 19.4 89 1.2 SSW 43 54 23 29 1017.3 1017.1 0.0
17/12:00pm 21.9 18.9 19.8 88 1.3 SSW 35 46 19 25 1017.9 1017.7 0.0
17/11:30am 21.9 18.4 19.5 86 1.5 SSW 37 44 20 24 1018.5 1018.3 0.0
17/11:00am 21.3 17.9 19.0 87 1.5 SSW 35 44 19 24 1018.7 1018.5 0.0
17/10:30am 20.9 18.2 19.2 90 1.1 SW 32 41 17 22 1018.9 1018.7 0.0
17/10:00am 20.2 17.6 18.7 91 0.9 SW 30 41 16 22 1019.0 1018.8 0.0
17/09:30am 20.1 17.6 18.8 92 0.8 SW 30 35 16 19 1019.5 1019.3 0.0
17/09:00am 19.9 16.9 18.7 93 0.7 SW 32 39 17 21 1019.3 1019.1 5.6
17/08:30am 19.6 17.0 18.6 94 0.6 SW 30 37 16 20 1019.1 1018.9 5.6
17/08:00am 19.6 17.7 18.6 94 0.6 SW 26 35 14 19 1019.3 1019.1 5.6
17/07:30am 19.6 17.4 18.6 94 0.6 SW 28 32 15 17 1019.3 1019.1 5.6
17/07:00am 19.4 17.7 18.2 93 0.7 SW 24 32 13 17 1019.1 1018.9 5.6
17/06:30am 19.5 17.9 18.3 93 0.7 SW 24 30 13 16 1019.0 1018.8 5.6
17/06:00am 19.7 18.5 18.4 92 0.8 SW 22 30 12 16 1018.9 1018.7 5.6
17/05:30am 20.0 18.4 18.3 90 1.1 SW 24 32 13 17 1018.8 1018.6 5.6
17/05:00am 20.6 20.5 17.8 84 1.7 S 15 24 8 13 1018.4 1018.2 5.6
17/04:30am 20.9 20.9 17.3 80 2.2 S 13 22 7 12 1018.6 1018.4 5.6
17/04:00am 21.5 20.2 16.7 74 2.9 E 19 24 10 13 1018.8 1018.6 5.6
17/03:30am 21.8 20.6 17.4 76 2.7 E 20 26 11 14 1019.1 1018.9 5.6
17/03:00am 21.6 20.3 17.2 76 2.7 E 20 26 11 14 1019.3 1019.1 5.6
17/02:30am 21.8 20.1 17.2 75 2.8 E 22 28 12 15 1019.6 1019.4 5.6
17/02:00am 21.6 19.8 17.0 75 2.8 E 22 26 12 14 1019.9 1019.7 5.6

Latest Capital City Observations: Canberra | Sydney | Melbourne | Brisbane | Adelaide | Perth | Hobart | Darwin

Other formats

Comma delimited format used in spreadsheet applications
http://www.bom.gov.au/fwo/IDN60903/IDN60903.94939.axf

JavaScript Object Notation format (JSON) in row-major order
http://www.bom.gov.au/fwo/IDN60903/IDN60903.94939.json

Data quality

Most of these data are generated automatically and are frequently updated. Quality checks on data are not normally performed. It is possible for incorrect values to appear. Refer to information at About Latest Weather Observations and please check the disclaimer before using these data.